Time;durP1;ratioP1;P1;durP2;ratioP2;P2;SDS_P1;SDS_P2;PMS_P1;PMS_P2;Temp;Humidity;BMP_temperature;BMP_pressure;BME280_temperature;BME280_humidity;BME280_pressure;Samples;Min_cycle;Max_cycle;Signal;HPM_P1;HPM_P2
2022/02/24 00:02:31;;;;;;;13.03;7.47;;;;;;;7.87;48.44;98447.69;8335454;28;20565;-69
2022/02/24 00:06:37;;;;;;;16.47;7.83;;;;;;;7.80;48.00;98434.94;8350969;28;20240;-67
2022/02/24 00:10:41;;;;;;;18.70;9.10;;;;;;;7.59;47.79;98440.63;8351593;28;20232;-67
2022/02/24 00:14:44;;;;;;;14.43;7.80;;;;;;;7.30;49.39;98433.63;8350979;28;20231;-67
2022/02/24 00:18:48;;;;;;;15.13;8.10;;;;;;;7.00;49.80;98426.53;8351527;28;20539;-67
2022/02/24 00:22:51;;;;;;;16.90;8.97;;;;;;;6.57;51.47;98424.09;8351545;28;20454;-67
2022/02/24 00:26:55;;;;;;;14.87;8.10;;;;;;;6.70;51.29;98419.50;8351645;28;20232;-67
2022/02/24 00:30:58;;;;;;;21.83;8.07;;;;;;;6.93;50.40;98414.72;8351182;28;20232;-67
2022/02/24 00:35:02;;;;;;;16.50;8.13;;;;;;;6.91;50.72;98416.47;8350936;28;20239;-67
2022/02/24 00:39:05;;;;;;;13.60;7.53;;;;;;;6.92;50.28;98409.59;8351059;28;20243;-67
2022/02/24 00:43:09;;;;;;;18.57;7.87;;;;;;;6.95;50.17;98401.78;8351102;28;20448;-67
2022/02/24 00:47:13;;;;;;;13.90;7.27;;;;;;;7.04;50.37;98401.56;8350669;28;20236;-67
2022/02/24 00:51:16;;;;;;;12.27;7.20;;;;;;;6.78;50.69;98394.47;8350708;28;20251;-67
2022/02/24 00:55:19;;;;;;;14.40;7.60;;;;;;;6.69;51.31;98385.19;8350598;28;20247;-67
2022/02/24 00:59:23;;;;;;;14.10;7.63;;;;;;;6.39;51.99;98382.41;8350327;28;20543;-67
2022/02/24 01:03:26;;;;;;;13.77;7.40;;;;;;;6.91;50.60;98375.28;8349868;28;20235;-67
2022/02/24 01:07:29;;;;;;;12.30;7.00;;;;;;;7.10;49.85;98378.28;8349907;28;20232;-67
2022/02/24 01:11:32;;;;;;;13.97;7.97;;;;;;;6.69;50.87;98361.19;8349662;28;20235;-68
2022/02/24 01:15:38;;;;;;;12.17;7.20;;;;;;;6.63;51.13;98362.19;8349769;28;20246;-68
2022/02/24 01:19:41;;;;;;;16.70;7.00;;;;;;;6.79;50.71;98365.25;8349538;28;20232;-67
2022/02/24 01:23:44;;;;;;;14.97;7.07;;;;;;;6.34;51.67;98355.94;8350012;28;20231;-67
2022/02/24 01:27:47;;;;;;;15.47;7.33;;;;;;;6.00;53.43;98346.34;8349390;28;20244;-69
2022/02/24 01:31:52;;;;;;;15.87;7.37;;;;;;;5.97;53.16;98346.38;8349465;28;20415;-68
2022/02/24 01:35:55;;;;;;;15.70;7.77;;;;;;;5.47;54.82;98343.03;8349334;28;20580;-68
2022/02/24 01:40:00;;;;;;;14.07;7.60;;;;;;;5.79;54.46;98336.44;8349297;28;20235;-67
2022/02/24 01:44:11;;;;;;;17.40;7.47;;;;;;;5.39;55.92;98340.59;8350286;28;20247;-67
2022/02/24 01:48:16;;;;;;;14.93;7.53;;;;;;;5.43;55.59;98320.84;8350679;28;20225;-67
2022/02/24 01:52:19;;;;;;;13.77;7.50;;;;;;;5.73;54.33;98313.41;8350974;28;20219;-67
2022/02/24 01:56:22;;;;;;;12.63;6.87;;;;;;;5.57;54.60;98300.88;8350761;28;20523;-67
2022/02/24 02:00:25;;;;;;;15.43;6.90;;;;;;;5.72;54.24;98293.75;8349517;28;20231;-67
2022/02/24 02:04:30;;;;;;;15.37;7.20;;;;;;;5.78;54.34;98297.03;8348488;28;20239;-67
2022/02/24 02:08:33;;;;;;;13.83;7.20;;;;;;;5.65;54.72;98285.28;8348046;28;20228;-68
2022/02/24 02:12:47;;;;;;;14.57;7.70;;;;;;;5.60;54.56;98280.25;8348519;28;20543;-68
2022/02/24 02:16:51;;;;;;;16.03;7.77;;;;;;;6.02;53.96;98270.03;8348461;28;20233;-67
2022/02/24 02:20:56;;;;;;;14.10;6.93;;;;;;;6.06;53.29;98266.50;8347837;28;20228;-67
2022/02/24 02:25:00;;;;;;;16.30;7.60;;;;;;;5.58;54.66;98260.59;8347812;28;20228;-67
2022/02/24 02:29:05;;;;;;;14.87;7.40;;;;;;;5.29;55.08;98254.28;8347743;28;20232;-67
2022/02/24 02:33:08;;;;;;;12.33;7.50;;;;;;;5.36;55.82;98260.16;8347845;28;20228;-67
2022/02/24 02:37:12;;;;;;;12.10;6.20;;;;;;;5.57;54.21;98244.34;8347513;28;20232;-67
2022/02/24 02:41:16;;;;;;;13.60;7.03;;;;;;;5.34;54.78;98237.09;8347346;28;20231;-67
2022/02/24 02:45:19;;;;;;;14.30;7.13;;;;;;;5.20;56.26;98226.25;8347344;28;20231;-67
2022/02/24 02:49:22;;;;;;;12.23;6.53;;;;;;;5.54;54.59;98225.56;8347288;28;20227;-67
2022/02/24 02:53:26;;;;;;;17.33;6.60;;;;;;;5.39;55.10;98221.59;8347461;28;20232;-67
2022/02/24 02:57:29;;;;;;;11.17;6.20;;;;;;;6.04;53.52;98226.28;8347269;28;20239;-67
2022/02/24 03:01:32;;;;;;;14.00;6.97;;;;;;;6.23;52.48;98211.28;8346778;28;20240;-67
2022/02/24 03:05:36;;;;;;;12.53;5.93;;;;;;;6.09;52.97;98203.88;8347253;28;20232;-67
2022/02/24 03:09:40;;;;;;;13.30;6.23;;;;;;;5.83;53.61;98199.28;8347104;28;20231;-68
2022/02/24 03:13:46;;;;;;;13.37;6.83;;;;;;;5.27;55.40;98187.56;8347311;28;20535;-67
2022/02/24 03:17:49;;;;;;;15.37;6.17;;;;;;;5.20;56.40;98183.44;8347250;28;20236;-67
2022/02/24 03:21:52;;;;;;;13.43;6.20;;;;;;;5.11;56.56;98175.91;8347248;28;20235;-67
2022/02/24 03:25:57;;;;;;;11.90;6.20;;;;;;;5.93;54.00;98172.50;8347090;28;20235;-67
2022/02/24 03:30:00;;;;;;;12.07;6.00;;;;;;;5.91;54.08;98176.81;8347262;28;20235;-67
2022/02/24 03:34:02;;;;;;;12.33;5.83;;;;;;;6.21;53.34;98162.44;8347172;28;20228;-67
2022/02/24 03:38:06;;;;;;;9.17;5.57;;;;;;;6.23;53.52;98158.13;8347129;28;20239;-67
2022/02/24 03:42:10;;;;;;;14.00;5.63;;;;;;;6.41;52.32;98154.25;8346991;28;20235;-67
2022/02/24 03:46:13;;;;;;;12.27;5.77;;;;;;;6.50;52.57;98158.31;8347165;28;20243;-67
2022/02/24 03:50:16;;;;;;;14.33;6.13;;;;;;;5.99;54.30;98145.84;8349850;28;20349;-67
2022/02/24 03:54:19;;;;;;;13.17;5.67;;;;;;;5.34;56.12;98148.94;8353049;28;20535;-67
2022/02/24 03:58:24;;;;;;;11.80;5.87;;;;;;;5.63;55.39;98148.31;8353124;28;20236;-67
2022/02/24 04:02:27;;;;;;;9.07;5.50;;;;;;;5.72;55.08;98147.28;8352384;28;20235;-69
2022/02/24 04:06:30;;;;;;;10.90;5.43;;;;;;;6.25;53.67;98146.06;8352558;28;20235;-67
2022/02/24 04:10:33;;;;;;;11.90;5.50;;;;;;;6.15;53.95;98136.88;8351954;28;20232;-68
2022/02/24 04:14:40;;;;;;;13.40;6.10;;;;;;;5.93;54.41;98128.78;8351747;28;20298;-71
2022/02/24 04:18:43;;;;;;;9.30;5.53;;;;;;;6.35;53.45;98126.09;8351657;28;20236;-67
2022/02/24 04:22:46;;;;;;;12.67;5.53;;;;;;;6.34;53.12;98128.72;8351999;28;20232;-67
2022/02/24 04:26:49;;;;;;;11.77;5.60;;;;;;;6.33;52.89;98116.75;8351487;28;20602;-67
2022/02/24 04:30:53;;;;;;;13.77;5.57;;;;;;;6.57;52.34;98129.00;8351509;28;20248;-68
2022/02/24 04:34:56;;;;;;;12.27;5.20;;;;;;;6.07;54.11;98118.22;8351086;28;20269;-67
2022/02/24 04:38:59;;;;;;;12.17;5.20;;;;;;;6.25;53.63;98129.78;8351232;28;20507;-67
2022/02/24 04:43:02;;;;;;;12.50;5.60;;;;;;;5.49;55.93;98117.78;8351444;28;20295;-67
2022/02/24 04:47:07;;;;;;;9.50;4.87;;;;;;;5.86;55.25;98112.69;8350936;28;20510;-67
2022/02/24 04:51:10;;;;;;;9.43;5.43;;;;;;;5.82;55.19;98113.59;8350841;28;20710;-67
2022/02/24 04:55:13;;;;;;;9.70;5.33;;;;;;;6.19;53.78;98110.22;8350810;28;20248;-67
2022/02/24 04:59:16;;;;;;;13.33;5.30;;;;;;;6.10;54.18;98113.00;8350626;28;20244;-67
2022/02/24 05:03:21;;;;;;;10.43;5.37;;;;;;;6.49;53.69;98096.63;8349048;28;20305;-67
2022/02/24 05:07:24;;;;;;;11.10;5.50;;;;;;;6.22;53.98;98088.72;8350356;28;20256;-67
2022/02/24 05:11:27;;;;;;;11.53;5.33;;;;;;;6.10;54.33;98083.88;8350099;28;20247;-67
2022/02/24 05:15:30;;;;;;;12.67;5.60;;;;;;;6.48;53.27;98097.50;8350084;28;20309;-67
2022/02/24 05:19:35;;;;;;;9.37;4.60;;;;;;;6.24;53.70;98092.94;8349349;28;20236;-68
2022/02/24 05:23:40;;;;;;;8.37;4.57;;;;;;;6.48;53.79;98090.63;8349926;28;20314;-67
2022/02/24 05:27:43;;;;;;;9.57;4.90;;;;;;;6.05;54.83;98090.00;8349484;28;20317;-67
2022/02/24 05:31:46;;;;;;;10.60;5.40;;;;;;;6.21;54.57;98066.47;8349422;28;20243;-67
2022/02/24 05:35:51;;;;;;;12.70;5.37;;;;;;;6.02;55.56;98078.94;8349081;28;20256;-67
2022/02/24 05:39:54;;;;;;;8.90;5.03;;;;;;;5.88;55.96;98074.94;8349129;28;20298;-67
2022/02/24 05:43:57;;;;;;;8.77;5.03;;;;;;;5.80;56.14;98078.53;8349417;28;20331;-67
2022/02/24 05:48:00;;;;;;;11.30;5.63;;;;;;;5.94;55.85;98071.38;8348835;28;20235;-66
2022/02/24 05:52:06;;;;;;;10.50;5.80;;;;;;;5.89;56.00;98070.63;8347751;28;20297;-67
2022/02/24 05:56:09;;;;;;;10.53;5.43;;;;;;;6.54;53.93;98066.47;8348447;28;20232;-66
2022/02/24 06:00:13;;;;;;;8.27;5.20;;;;;;;5.84;56.32;98063.00;8348254;28;20277;-66
2022/02/24 06:04:16;;;;;;;10.60;5.77;;;;;;;6.24;55.63;98063.78;8347654;28;20231;-66
2022/02/24 06:08:21;;;;;;;10.30;5.73;;;;;;;6.53;54.49;98051.91;8347161;28;20420;-66
2022/02/24 06:12:25;;;;;;;10.13;5.23;;;;;;;5.46;56.96;98067.34;8344629;28;20311;-66
2022/02/24 06:16:28;;;;;;;11.03;6.10;;;;;;;6.15;55.75;98059.75;8347562;28;20238;-67
2022/02/24 06:20:31;;;;;;;12.23;5.97;;;;;;;6.28;55.87;98060.25;8338978;28;20643;-69
2022/02/24 06:24:40;;;;;;;9.07;5.13;;;;;;;5.81;57.31;98060.53;8347874;28;20429;-68
2022/02/24 06:28:43;;;;;;;8.57;4.57;;;;;;;6.06;56.36;98047.94;8347680;28;20244;-67
2022/02/24 06:32:46;;;;;;;11.40;5.97;;;;;;;6.08;56.10;98040.22;8347910;28;20235;-66
2022/02/24 06:36:49;;;;;;;8.27;4.70;;;;;;;5.70;57.59;98039.38;8347704;28;20545;-67
2022/02/24 06:40:53;;;;;;;11.43;5.17;;;;;;;5.72;57.34;98034.22;8347686;28;20243;-67
2022/02/24 06:44:56;;;;;;;11.77;5.27;;;;;;;5.81;57.56;98034.00;8347783;28;20227;-67
2022/02/24 06:48:59;;;;;;;10.53;4.77;;;;;;;6.02;57.04;98025.78;8347804;28;20542;-67
2022/02/24 06:53:02;;;;;;;7.67;4.80;;;;;;;6.00;57.13;98027.53;8347244;28;20234;-67
2022/02/24 06:57:07;;;;;;;9.27;4.60;;;;;;;5.71;58.52;98028.19;8347489;28;20228;-67
2022/02/24 07:01:10;;;;;;;11.60;6.97;;;;;;;6.17;56.78;98023.69;8347666;28;20239;-67
2022/02/24 07:05:13;;;;;;;10.03;5.17;;;;;;;6.05;57.30;98018.00;8315047;28;20279;-67
2022/02/24 07:09:17;;;;;;;12.53;4.80;;;;;;;6.42;56.63;98008.47;8314145;28;20233;-67
2022/02/24 07:13:22;;;;;;;11.43;4.90;;;;;;;6.64;55.93;98019.88;8314576;28;20228;-67
2022/02/24 07:17:44;;;;;;;10.20;5.00;;;;;;;6.45;55.95;98009.25;8314216;28;20570;-67
2022/02/24 07:21:47;;;;;;;11.13;5.00;;;;;;;6.67;55.78;98006.06;8314246;28;20429;-67
2022/02/24 07:25:50;;;;;;;11.17;5.57;;;;;;;6.25;56.83;97990.91;8319958;28;20563;-68
2022/02/24 07:29:54;;;;;;;10.43;5.43;;;;;;;6.79;55.60;97992.00;8320466;28;20232;-68
2022/02/24 07:34:04;;;;;;;12.23;4.77;;;;;;;7.44;53.96;97989.19;8320503;28;20233;-67
2022/02/24 07:38:07;;;;;;;13.57;5.23;;;;;;;7.49;54.03;97993.34;8320147;28;20296;-67
2022/02/24 07:42:13;;;;;;;10.30;4.97;;;;;;;7.80;53.03;97988.06;8320254;28;20336;-68
2022/02/24 07:46:17;;;;;;;9.43;4.67;;;;;;;7.47;53.76;97995.16;8320154;28;20415;-67
2022/02/24 07:50:20;;;;;;;10.97;4.70;;;;;;;7.34;54.57;97985.19;8320073;28;20535;-67
2022/02/24 07:54:23;;;;;;;10.73;5.30;;;;;;;7.34;54.59;97982.63;8319816;28;20422;-67
2022/02/24 07:58:26;;;;;;;11.17;5.30;;;;;;;7.00;55.78;97987.97;8319583;28;20245;-67
2022/02/24 08:02:31;;;;;;;9.23;5.17;;;;;;;7.89;53.56;97979.19;8319673;28;20229;-67
2022/02/24 08:06:34;;;;;;;10.87;5.20;;;;;;;7.46;54.85;97983.13;8311487;28;20424;-68
2022/02/24 08:10:38;;;;;;;11.03;4.60;;;;;;;7.90;53.90;97981.72;8319183;28;20243;-68
2022/02/24 08:14:41;;;;;;;14.97;5.57;;;;;;;7.68;54.46;97971.25;8319095;28;20233;-67
2022/02/24 08:18:45;;;;;;;13.90;5.07;;;;;;;8.31;53.15;97969.13;8319327;28;20243;-68
2022/02/24 08:22:49;;;;;;;18.30;5.30;;;;;;;8.39;52.73;97968.84;8318915;28;20233;-68
2022/02/24 08:26:52;;;;;;;13.73;4.90;;;;;;;8.10;53.41;97972.44;8319002;28;20397;-68
2022/02/24 08:30:55;;;;;;;12.47;4.70;;;;;;;7.80;54.13;97960.53;8318796;28;20527;-68
2022/02/24 08:35:03;;;;;;;8.93;5.03;;;;;;;8.52;52.88;97962.38;8318155;28;20567;-67
2022/02/24 08:39:08;;;;;;;13.93;6.10;;;;;;;8.34;53.11;97948.38;8318613;28;20248;-67
2022/02/24 08:43:16;;;;;;;13.03;5.20;;;;;;;8.82;52.35;97938.94;8318630;28;20239;-67
2022/02/24 08:47:19;;;;;;;14.03;5.43;;;;;;;9.09;51.38;97943.94;8318148;28;20241;-67
2022/02/24 08:51:24;;;;;;;8.83;5.03;;;;;;;9.37;50.77;97934.19;8317905;28;20237;-68
2022/02/24 08:55:27;;;;;;;14.03;5.97;;;;;;;9.65;50.82;97932.22;8317944;28;20424;-67
2022/02/24 08:59:30;;;;;;;13.10;5.13;;;;;;;9.88;50.23;97921.78;8317716;28;20237;-67
2022/02/24 09:03:33;;;;;;;10.10;5.20;;;;;;;10.12;49.08;97919.88;8336360;28;20248;-68
2022/02/24 09:07:38;;;;;;;12.27;5.40;;;;;;;10.33;48.99;97919.88;8350218;28;20282;-68
2022/02/24 09:12:02;;;;;;;10.23;4.50;;;;;;;10.44;48.46;97911.66;8350212;28;20230;-68
2022/02/24 09:16:05;;;;;;;8.93;5.47;;;;;;;11.31;49.34;97910.19;8350063;28;20235;-66
2022/02/24 09:20:11;;;;;;;11.00;5.20;;;;;;;11.04;49.52;97912.34;8349843;28;20240;-66
2022/02/24 09:24:16;;;;;;;10.00;4.73;;;;;;;11.35;47.46;97901.34;8349817;28;20224;-66
2022/02/24 09:28:19;;;;;;;8.87;5.23;;;;;;;11.55;47.06;97889.97;8349721;28;20559;-66
2022/02/24 09:32:22;;;;;;;9.00;4.97;;;;;;;11.92;45.34;97885.59;8347800;28;20244;-67
2022/02/24 09:36:25;;;;;;;9.13;4.97;;;;;;;11.31;47.14;97880.84;8349605;28;20231;-67
2022/02/24 09:40:31;;;;;;;10.63;5.47;;;;;;;11.95;45.94;97881.16;8349470;28;20235;-67
2022/02/24 09:44:54;;;;;;;28.77;15.77;;;;;;;13.21;45.01;97866.59;8349193;28;20408;-66
2022/02/24 09:48:58;;;;;;;31.20;13.60;;;;;;;13.95;45.04;97863.16;8348311;28;20235;-67
2022/02/24 09:53:00;;;;;;;14.07;7.27;;;;;;;14.64;43.47;97860.75;8348919;28;20409;-68
2022/02/24 09:57:05;;;;;;;12.50;7.13;;;;;;;15.00;44.13;97848.94;8349108;28;20234;-67
2022/02/24 10:01:12;;;;;;;15.47;6.77;;;;;;;15.08;43.47;97836.25;8349118;28;20531;-66
2022/02/24 10:05:16;;;;;;;11.13;6.00;;;;;;;15.48;43.40;97835.38;8332959;28;20584;-68
2022/02/24 10:09:31;;;;;;;14.83;5.37;;;;;;;15.35;41.48;97828.38;8348497;28;20447;-67
2022/02/24 10:13:35;;;;;;;16.97;5.63;;;;;;;15.79;43.75;97821.16;8348349;28;20223;-68
2022/02/24 10:17:38;;;;;;;15.43;5.10;;;;;;;16.35;41.84;97807.72;8348630;28;20397;-68
2022/02/24 10:21:41;;;;;;;11.87;4.73;;;;;;;16.90;40.87;97813.44;8347936;28;20243;-68
2022/02/24 10:25:46;;;;;;;10.40;4.47;;;;;;;16.17;39.68;97795.03;8348002;28;20232;-70
2022/02/24 10:30:08;;;;;;;12.50;4.90;;;;;;;15.58;38.98;97800.75;8347753;28;20236;-70
2022/02/24 10:34:11;;;;;;;9.87;4.30;;;;;;;16.47;38.24;97798.19;8347913;28;20560;-70
2022/02/24 10:38:15;;;;;;;38.47;4.60;;;;;;;15.86;39.30;97782.41;8347901;28;20424;-71
2022/02/24 10:42:24;;;;;;;9.97;4.13;;;;;;;15.76;39.55;97772.63;8347804;28;20235;-71
2022/02/24 10:46:29;;;;;;;7.90;3.97;;;;;;;15.97;39.44;97772.06;8347711;28;20231;-71
2022/02/24 10:50:50;;;;;;;9.10;4.37;;;;;;;15.42;39.83;97758.34;8347169;28;20258;-70
2022/02/24 10:54:58;;;;;;;29.93;4.60;;;;;;;15.77;39.10;97742.13;8347141;28;20228;-71
2022/02/24 10:59:01;;;;;;;8.83;4.00;;;;;;;16.36;38.06;97725.78;8350168;28;20432;-70
2022/02/24 11:03:05;;;;;;;6.57;3.17;;;;;;;15.96;39.24;97724.22;8340194;28;20227;-70
2022/02/24 11:07:10;;;;;;;5.73;3.20;;;;;;;16.55;38.21;97726.13;8354324;28;20234;-70
2022/02/24 11:11:18;;;;;;;6.80;3.20;;;;;;;15.97;38.33;97712.84;8353739;28;20232;-71
2022/02/24 11:15:21;;;;;;;4.50;3.10;;;;;;;15.89;39.15;97707.31;8353828;28;20431;-71
2022/02/24 11:19:32;;;;;;;6.57;3.80;;;;;;;15.95;39.47;97691.19;8352954;28;20240;-71
2022/02/24 11:23:38;;;;;;;10.57;3.00;;;;;;;15.89;38.96;97682.97;8353193;28;20227;-72
2022/02/24 11:27:46;;;;;;;4.70;2.57;;;;;;;16.58;38.49;97676.25;8353514;28;20293;-72
2022/02/24 11:31:57;;;;;;;5.60;2.60;;;;;;;16.54;37.84;97658.28;8353450;28;20420;-70
2022/02/24 11:36:14;;;;;;;6.10;2.13;;;;;;;16.73;37.76;97652.50;8352994;28;20314;-70
2022/02/24 11:40:22;;;;;;;4.70;2.10;;;;;;;17.06;36.22;97636.13;8353197;28;20239;-71
2022/02/24 11:44:32;;;;;;;5.43;2.20;;;;;;;16.32;37.35;97630.28;8353380;28;20228;-71
2022/02/24 11:48:37;;;;;;;10.37;2.77;;;;;;;16.21;37.66;97637.09;8352600;28;20348;-72
2022/02/24 11:52:51;;;;;;;5.13;3.00;;;;;;;16.40;37.49;97633.97;8353082;28;20236;-70
2022/02/24 11:57:28;;;;;;;5.83;2.60;;;;;;;16.19;37.78;97623.31;8352557;28;20421;-70
2022/02/24 12:01:38;;;;;;;4.73;2.07;;;;;;;15.96;38.08;97616.31;8351046;28;20235;-71
2022/02/24 12:05:41;;;;;;;4.30;2.27;;;;;;;16.55;37.73;97600.66;8352053;28;20243;-71
2022/02/24 12:10:09;;;;;;;6.90;3.37;;;;;;;16.31;38.48;97600.69;8350821;28;20243;-73
2022/02/24 12:14:47;;;;;;;3.60;2.60;;;;;;;16.39;37.92;97581.81;8351639;28;20399;-73
2022/02/24 12:18:52;;;;;;;8.67;2.47;;;;;;;16.08;38.31;97586.69;8351697;28;20228;-72
2022/02/24 12:22:56;;;;;;;17.17;2.33;;;;;;;16.02;38.79;97574.91;8351555;28;20236;-72
2022/02/24 12:27:25;;;;;;;7.10;2.60;;;;;;;15.96;38.92;97558.88;8351504;28;20243;-72
2022/02/24 12:31:28;;;;;;;4.10;2.00;;;;;;;15.77;39.51;97554.97;8351260;28;20228;-71
2022/02/24 12:35:33;;;;;;;7.00;2.33;;;;;;;15.41;39.55;97548.78;8350941;28;20220;-72
2022/02/24 12:39:37;;;;;;;6.20;2.33;;;;;;;15.25;40.28;97548.22;8351391;28;20247;-70
2022/02/24 12:43:43;;;;;;;6.13;2.30;;;;;;;15.34;40.81;97537.09;8351014;28;20295;-69
2022/02/24 12:47:49;;;;;;;4.90;2.07;;;;;;;15.47;40.79;97539.69;8350992;28;20235;-69
2022/02/24 12:51:56;;;;;;;4.47;2.43;;;;;;;14.86;42.10;97539.59;8351104;28;20228;-65
2022/02/24 12:56:00;;;;;;;6.43;2.83;;;;;;;14.87;42.08;97525.63;8350905;28;20232;-65
2022/02/24 13:00:05;;;;;;;5.83;2.60;;;;;;;14.84;42.91;97521.44;8350568;28;20240;-65
2022/02/24 13:04:13;;;;;;;4.43;2.00;;;;;;;14.75;42.90;97521.25;8350817;28;20255;-65
2022/02/24 13:12:41;;;;;;;11.60;3.33;;;;;;;14.69;42.91;97493.00;8350358;28;20303;-65
2022/02/24 13:16:47;;;;;;;3.07;1.80;;;;;;;14.60;43.16;97492.69;8349784;28;20224;-65
2022/02/24 13:20:59;;;;;;;4.97;1.93;;;;;;;14.49;42.94;97482.13;8349337;28;20413;-64
2022/02/24 13:25:01;;;;;;;4.23;1.77;;;;;;;14.53;43.24;97474.94;8349452;28;20539;-65
2022/02/24 13:29:06;;;;;;;5.20;1.97;;;;;;;14.57;42.90;97472.06;8348822;28;20544;-66
2022/02/24 13:33:11;;;;;;;3.40;1.80;;;;;;;14.53;42.75;97470.56;8348558;28;20228;-66
2022/02/24 13:37:14;;;;;;;3.00;1.70;;;;;;;14.50;41.11;97456.91;8348670;28;20286;-67
2022/02/24 13:41:18;;;;;;;3.20;2.30;;;;;;;14.83;40.65;97448.56;8345953;28;20243;-66
2022/02/24 13:45:22;;;;;;;3.87;2.10;;;;;;;14.90;40.71;97454.19;8347912;28;20425;-66
2022/02/24 13:49:33;;;;;;;7.73;1.80;;;;;;;14.88;40.49;97440.44;8347111;28;20230;-66
2022/02/24 13:53:37;;;;;;;3.43;1.50;;;;;;;14.71;40.79;97434.59;8345960;28;20220;-66
2022/02/24 13:57:50;;;;;;;2.00;1.17;;;;;;;14.82;40.91;97426.88;8346922;28;20516;-69
2022/02/24 14:01:54;;;;;;;3.07;1.50;;;;;;;14.82;41.23;97431.25;8340539;28;20251;-67
2022/02/24 14:06:13;;;;;;;3.67;1.60;;;;;;;14.88;41.16;97428.22;8334291;28;20270;-67
2022/02/24 14:10:18;;;;;;;4.17;1.80;;;;;;;14.83;41.46;97427.69;8330838;28;20232;-67
2022/02/24 14:14:22;;;;;;;3.13;1.70;;;;;;;14.58;41.40;97419.00;8335903;28;20255;-66
2022/02/24 14:18:26;;;;;;;4.70;1.63;;;;;;;14.71;41.48;97416.38;8332230;28;20232;-66
2022/02/24 14:22:31;;;;;;;4.93;3.10;;;;;;;14.53;41.75;97409.81;8332826;28;20244;-66
2022/02/24 14:26:34;;;;;;;12.70;9.33;;;;;;;14.51;42.09;97412.53;8314791;28;20237;-65
2022/02/24 14:30:38;;;;;;;5.63;2.10;;;;;;;14.40;41.95;97402.84;8315276;28;20300;-65
2022/02/24 14:34:41;;;;;;;2.77;1.83;;;;;;;14.46;42.10;97405.00;8314875;28;20239;-66
2022/02/24 14:38:47;;;;;;;6.47;2.33;;;;;;;14.39;42.12;97408.13;8315246;28;20236;-65
2022/02/24 14:42:49;;;;;;;6.97;2.47;;;;;;;14.35;42.25;97414.50;8324472;28;20236;-65
2022/02/24 14:46:53;;;;;;;5.83;2.47;;;;;;;14.27;42.35;97410.66;8347571;28;20252;-67
2022/02/24 14:50:56;;;;;;;4.10;1.70;;;;;;;14.12;41.93;97401.28;8347623;28;20236;-66
2022/02/24 14:55:02;;;;;;;3.73;2.20;;;;;;;14.19;41.99;97402.53;8347094;28;20227;-66
2022/02/24 14:59:05;;;;;;;4.13;2.00;;;;;;;14.03;41.67;97389.72;8347003;28;20236;-66
2022/02/24 15:03:09;;;;;;;4.07;1.63;;;;;;;14.07;41.55;97392.97;8347315;28;20254;-67
2022/02/24 15:07:12;;;;;;;6.07;2.33;;;;;;;13.96;41.67;97395.44;8347241;28;20247;-67
2022/02/24 15:11:16;;;;;;;4.50;2.00;;;;;;;14.03;41.67;97407.09;8346854;28;20232;-66
2022/02/24 15:15:20;;;;;;;5.53;2.13;;;;;;;13.92;41.53;97405.22;8346642;28;20231;-67
2022/02/24 15:19:23;;;;;;;3.03;1.50;;;;;;;13.83;41.34;97401.47;8345220;28;20634;-66
2022/02/24 15:23:26;;;;;;;12.00;1.90;;;;;;;13.72;41.51;97403.94;8345881;28;20228;-66
2022/02/24 15:27:31;;;;;;;4.03;1.97;;;;;;;13.72;42.19;97422.16;8343232;28;20243;-69
2022/02/24 15:31:34;;;;;;;6.43;1.87;;;;;;;13.62;42.94;97428.91;8345434;28;20235;-67
2022/02/24 15:35:37;;;;;;;4.93;1.53;;;;;;;13.59;42.74;97434.28;8346167;28;20523;-67
2022/02/24 15:39:40;;;;;;;4.53;2.07;;;;;;;13.63;42.36;97435.75;8344386;28;20228;-67
2022/02/24 15:43:44;;;;;;;4.27;2.00;;;;;;;13.70;42.36;97437.03;8346553;28;20559;-66
2022/02/24 15:47:47;;;;;;;2.90;1.80;;;;;;;13.79;42.04;97433.84;8351974;28;20239;-66
2022/02/24 15:51:50;;;;;;;3.87;1.20;;;;;;;13.63;41.58;97438.34;8349441;28;20255;-66
2022/02/24 15:55:53;;;;;;;5.53;1.67;;;;;;;13.81;41.59;97437.16;8351770;28;20235;-66
2022/02/24 15:59:58;;;;;;;3.33;1.40;;;;;;;13.64;41.16;97438.28;8351661;28;20235;-66
2022/02/24 16:04:05;;;;;;;13.13;8.50;;;;;;;13.45;41.15;97443.00;8351150;28;20526;-65
2022/02/24 16:08:09;;;;;;;3.30;1.80;;;;;;;13.12;41.44;97433.78;8348779;28;20243;-66
2022/02/24 16:12:12;;;;;;;7.07;3.87;;;;;;;13.23;41.11;97439.16;8351473;28;20232;-66
2022/02/24 16:16:17;;;;;;;9.57;8.57;;;;;;;13.37;40.95;97443.50;8350993;28;20326;-66
2022/02/24 16:20:21;;;;;;;11.00;5.67;;;;;;;13.23;41.04;97441.75;8349818;28;20278;-62
2022/02/24 16:24:24;;;;;;;5.13;3.90;;;;;;;13.13;40.99;97440.66;8351798;28;20243;-63
2022/02/24 16:28:27;;;;;;;5.83;4.50;;;;;;;13.28;41.02;97433.63;8352041;28;20416;-63
2022/02/24 16:32:32;;;;;;;7.00;5.47;;;;;;;13.29;41.10;97443.94;8351522;28;20266;-64
2022/02/24 16:36:35;;;;;;;5.20;3.90;;;;;;;13.32;40.65;97442.13;8350618;28;20231;-63
2022/02/24 16:40:38;;;;;;;4.90;2.83;;;;;;;13.29;40.68;97437.94;8350896;28;20238;-64
2022/02/24 16:44:43;;;;;;;7.10;4.17;;;;;;;13.32;40.79;97440.34;8350796;28;20248;-63
2022/02/24 16:48:48;;;;;;;5.57;3.73;;;;;;;13.23;40.92;97436.53;8350930;28;20546;-64
2022/02/24 16:52:51;;;;;;;4.10;1.93;;;;;;;13.10;41.50;97431.28;8351096;28;20538;-63
2022/02/24 16:56:54;;;;;;;2.47;1.40;;;;;;;13.23;41.36;97438.28;8350192;28;20228;-64
2022/02/24 17:01:06;;;;;;;3.97;1.50;;;;;;;13.19;41.76;97444.63;8350460;28;20224;-64
2022/02/24 17:05:11;;;;;;;4.50;1.70;;;;;;;13.19;41.78;97445.44;8350415;28;20228;-63
2022/02/24 17:09:17;;;;;;;3.80;1.70;;;;;;;13.38;42.50;97445.16;8350366;28;20228;-63
2022/02/24 17:13:21;;;;;;;2.43;1.57;;;;;;;13.29;41.96;97443.13;8350244;28;20231;-63
2022/02/24 17:17:24;;;;;;;5.40;1.60;;;;;;;13.14;42.24;97449.28;8348841;28;20234;-63
2022/02/24 17:21:28;;;;;;;2.60;1.60;;;;;;;13.27;42.19;97452.78;8347301;28;20605;-65
2022/02/24 17:25:34;;;;;;;4.70;1.80;;;;;;;13.34;42.07;97453.25;8349569;28;20231;-65
2022/02/24 17:29:37;;;;;;;6.73;3.87;;;;;;;13.28;42.45;97446.63;8349646;28;20236;-65
2022/02/24 17:33:43;;;;;;;4.77;2.50;;;;;;;13.29;42.43;97451.75;8349881;28;20243;-65
2022/02/24 17:37:48;;;;;;;5.13;3.83;;;;;;;13.21;42.57;97441.00;8349313;28;20232;-65
2022/02/24 17:41:51;;;;;;;6.40;3.43;;;;;;;13.19;42.66;97437.66;8349354;28;20431;-65
2022/02/24 17:45:54;;;;;;;4.77;1.83;;;;;;;13.18;42.49;97445.56;8349124;28;20236;-65
2022/02/24 17:49:58;;;;;;;5.80;3.70;;;;;;;13.12;42.99;97444.19;8349062;28;20228;-65
2022/02/24 17:54:02;;;;;;;4.03;1.83;;;;;;;13.00;42.80;97453.56;8347819;28;20534;-65
2022/02/24 17:58:05;;;;;;;9.37;2.83;;;;;;;12.97;43.13;97451.19;8349065;28;20228;-65
2022/02/24 18:02:08;;;;;;;4.87;2.27;;;;;;;12.91;43.02;97446.38;8347823;28;20543;-65
2022/02/24 18:06:12;;;;;;;3.53;2.00;;;;;;;12.76;43.43;97449.91;8348520;28;20232;-65
2022/02/24 18:10:16;;;;;;;3.70;1.90;;;;;;;12.75;43.65;97446.47;8347631;28;20426;-65
2022/02/24 18:14:19;;;;;;;14.43;2.20;;;;;;;12.54;44.08;97447.78;8348104;28;20239;-65
2022/02/24 18:18:22;;;;;;;3.83;1.83;;;;;;;12.66;43.84;97444.41;8348237;28;20234;-65
2022/02/24 18:22:25;;;;;;;4.97;2.07;;;;;;;12.54;44.34;97442.59;8348172;28;20243;-65
2022/02/24 18:26:29;;;;;;;6.50;2.03;;;;;;;12.75;44.01;97450.81;8348080;28;20235;-67
2022/02/24 18:30:32;;;;;;;3.57;1.70;;;;;;;12.57;44.30;97447.59;8346895;28;20538;-68
2022/02/24 18:34:38;;;;;;;6.00;2.13;;;;;;;12.55;44.35;97455.47;8347853;28;20289;-67
2022/02/24 18:38:41;;;;;;;4.20;1.70;;;;;;;12.37;44.97;97435.81;8347391;28;20225;-67
2022/02/24 18:42:46;;;;;;;5.03;2.00;;;;;;;12.42;44.68;97434.59;8346069;28;20243;-67
2022/02/24 18:46:49;;;;;;;4.67;1.83;;;;;;;12.21;45.13;97449.69;8346761;28;20227;-67
2022/02/24 18:50:53;;;;;;;5.20;1.83;;;;;;;12.19;45.27;97437.75;8338291;28;20228;-67
2022/02/24 18:54:56;;;;;;;9.23;2.20;;;;;;;13.42;57.16;97440.59;8347341;28;20231;-62
2022/02/24 18:59:01;;;;;;;6.63;2.97;;;;;;;13.47;50.26;97441.97;8347519;28;20569;-62
2022/02/24 19:03:04;;;;;;;3.87;2.17;;;;;;;13.68;44.02;97431.09;8347069;28;20232;-63
2022/02/24 19:07:07;;;;;;;4.57;2.13;;;;;;;13.20;43.50;97433.31;8347406;28;20251;-67
2022/02/24 19:11:26;;;;;;;7.03;3.77;;;;;;;12.93;43.96;97433.25;8347126;28;20236;-67
2022/02/24 19:15:30;;;;;;;4.57;2.63;;;;;;;13.00;43.64;97437.16;8343081;28;20287;-70
2022/02/24 19:19:34;;;;;;;5.07;2.13;;;;;;;12.64;44.50;97441.09;8345676;28;20224;-70